createdAt,value
2023-01-11T00:00:23.136Z,6.44
2023-01-11T00:02:58.833Z,6.46
2023-01-11T00:05:26.209Z,6.47
2023-01-11T00:07:53.053Z,6.47
2023-01-11T00:10:20.913Z,6.54
2023-01-11T00:12:49.027Z,6.52
2023-01-11T00:15:16.760Z,6.55
2023-01-11T00:17:43.471Z,6.59
2023-01-11T00:20:11.078Z,6.60
2023-01-11T00:22:38.086Z,6.65
2023-01-11T00:25:05.757Z,6.72
2023-01-11T00:27:37.758Z,6.71
2023-01-11T00:30:05.763Z,6.71
2023-01-11T00:32:32.494Z,6.67
2023-01-11T00:34:59.271Z,6.71
2023-01-11T00:37:26.008Z,6.80
2023-01-11T00:39:52.689Z,6.73
2023-01-11T00:42:37.877Z,6.78
2023-01-11T00:45:24.119Z,6.91
2023-01-11T00:48:04.827Z,6.88
2023-01-11T00:50:35.782Z,6.90
2023-01-11T00:53:03.181Z,6.93
2023-01-11T00:55:31.927Z,6.88
2023-01-11T00:57:59.259Z,6.94
2023-01-11T01:00:28.280Z,6.96
2023-01-11T01:02:55.188Z,6.95
2023-01-11T01:05:22.048Z,6.90
2023-01-11T01:07:48.713Z,6.94
2023-01-11T01:10:17.196Z,6.94
2023-01-11T01:13:02.900Z,6.97
2023-01-11T01:15:29.695Z,7.01
2023-01-11T01:17:56.439Z,7.10
2023-01-11T01:20:24.606Z,7.10
2023-01-11T01:22:51.375Z,7.06
2023-01-11T01:25:19.150Z,7.11
2023-01-11T01:27:45.985Z,7.19
2023-01-11T01:30:13.036Z,7.24
2023-01-11T01:32:40.333Z,7.21
2023-01-11T01:35:07.563Z,7.24
2023-01-11T01:37:34.511Z,7.20
2023-01-11T01:40:04.526Z,7.23
2023-01-11T01:42:35.432Z,7.34
2023-01-11T01:45:20.064Z,7.40
2023-01-11T01:48:01.156Z,7.38
2023-01-11T01:50:44.530Z,7.39
2023-01-11T01:53:20.810Z,7.35
2023-01-11T01:55:57.742Z,7.33
2023-01-11T01:58:33.126Z,7.38
2023-01-11T02:01:22.678Z,7.31
2023-01-11T02:03:52.357Z,7.16
2023-01-11T02:06:22.693Z,7.15
2023-01-11T02:09:00.322Z,7.23
2023-01-11T02:11:30.701Z,7.17
2023-01-11T02:14:03.255Z,7.23
2023-01-11T02:16:30.397Z,7.21
2023-01-11T02:18:58.390Z,7.20
2023-01-11T02:21:58.890Z,7.11
2023-01-11T02:24:38.113Z,7.08
2023-01-11T02:27:25.333Z,7.04
2023-01-11T02:30:27.126Z,7.04
2023-01-11T02:33:24.437Z,7.00
2023-01-11T02:36:06.507Z,6.98
2023-01-11T02:38:48.772Z,7.00
2023-01-11T02:41:49.051Z,7.03
2023-01-11T02:44:46.009Z,7.02
2023-01-11T02:47:22.879Z,7.03
2023-01-11T02:49:57.039Z,7.07
2023-01-11T02:52:42.870Z,7.07
2023-01-11T02:55:13.080Z,7.13
2023-01-11T02:57:42.739Z,7.23
2023-01-11T03:00:11.525Z,7.19
2023-01-11T03:02:38.360Z,7.19
2023-01-11T03:05:14.976Z,7.20
2023-01-11T03:08:00.315Z,7.26
2023-01-11T03:10:56.210Z,7.26
2023-01-11T03:13:55.150Z,7.29
2023-01-11T03:16:27.667Z,7.27
2023-01-11T03:19:06.370Z,7.34
2023-01-11T03:21:54.634Z,7.31
2023-01-11T03:24:34.303Z,7.34
2023-01-11T03:27:13.094Z,7.33
2023-01-11T03:29:46.028Z,7.36
2023-01-11T03:32:52.047Z,7.39
2023-01-11T03:35:29.412Z,7.41
2023-01-11T03:38:03.526Z,7.40
2023-01-11T03:40:35.275Z,7.44
2023-01-11T03:43:12.845Z,7.40
2023-01-11T03:46:04.054Z,7.46
2023-01-11T03:48:47.606Z,7.45
2023-01-11T03:51:21.098Z,7.49
2023-01-11T03:53:50.244Z,7.53
2023-01-11T03:56:23.002Z,7.57
2023-01-11T03:58:49.779Z,7.61
2023-01-11T04:01:16.924Z,7.59
2023-01-11T04:03:43.635Z,7.64
2023-01-11T04:06:11.796Z,7.65
2023-01-11T04:08:38.467Z,7.70
2023-01-11T04:11:05.491Z,7.73
2023-01-11T04:13:34.051Z,7.72
2023-01-11T04:16:01.016Z,7.76
2023-01-11T04:18:28.039Z,7.75
2023-01-11T04:20:54.888Z,7.71
2023-01-11T04:23:21.541Z,7.76
2023-01-11T04:25:48.306Z,7.71
2023-01-11T04:28:15.226Z,7.66
2023-01-11T04:30:44.281Z,7.73
2023-01-11T04:33:13.236Z,7.72
2023-01-11T04:35:40.100Z,7.75
2023-01-11T04:38:06.795Z,7.75
2023-01-11T04:40:33.448Z,7.82
2023-01-11T04:43:02.238Z,7.79
2023-01-11T04:45:30.393Z,7.83
2023-01-11T04:47:58.136Z,7.84
2023-01-11T04:50:26.638Z,7.97
2023-01-11T04:52:53.795Z,7.95
2023-01-11T04:55:20.836Z,7.98
2023-01-11T04:57:47.583Z,8.02
2023-01-11T05:00:15.974Z,8.07
2023-01-11T05:02:42.796Z,8.10
2023-01-11T05:05:11.448Z,8.11
2023-01-11T05:07:39.237Z,8.12
2023-01-11T05:10:06.820Z,8.12
2023-01-11T05:12:33.462Z,8.13
2023-01-11T05:15:00.104Z,8.17
2023-01-11T05:17:26.752Z,8.23
2023-01-11T05:19:53.382Z,8.24
2023-01-11T05:22:20.014Z,8.21
2023-01-11T05:24:46.685Z,8.24
2023-01-11T05:27:13.369Z,8.31
2023-01-11T05:29:43.810Z,8.25
2023-01-11T05:32:12.130Z,8.11
2023-01-11T05:34:38.774Z,8.11
2023-01-11T05:37:07.357Z,8.23
2023-01-11T05:40:03.854Z,8.26
2023-01-11T05:42:31.741Z,8.49
2023-01-11T05:45:16.863Z,8.48
2023-01-11T05:47:43.609Z,8.59
2023-01-11T05:50:10.778Z,8.71
2023-01-11T05:52:37.430Z,9.08
2023-01-11T05:55:04.666Z,9.28
2023-01-11T05:57:31.288Z,9.30
2023-01-11T05:59:57.969Z,9.35
2023-01-11T06:02:24.765Z,9.40
2023-01-11T06:04:51.480Z,9.35
2023-01-11T06:07:18.209Z,9.38
2023-01-11T06:09:44.872Z,9.38
2023-01-11T06:12:11.643Z,9.34
2023-01-11T06:14:38.420Z,9.34
2023-01-11T06:17:05.092Z,9.32
2023-01-11T06:19:31.698Z,9.33
2023-01-11T06:21:58.429Z,9.31
2023-01-11T06:24:25.128Z,9.43
2023-01-11T06:26:55.002Z,9.34
2023-01-11T06:29:21.888Z,9.40
2023-01-11T06:31:48.671Z,9.39
2023-01-11T06:34:15.282Z,9.40
2023-01-11T06:36:42.160Z,9.40
2023-01-11T06:39:10.695Z,9.36
2023-01-11T06:41:37.381Z,9.36
2023-01-11T06:44:04.159Z,9.34
2023-01-11T06:46:32.207Z,9.38
2023-01-11T06:48:59.062Z,9.46
2023-01-11T06:51:29.769Z,9.41
2023-01-11T06:53:56.443Z,9.52
2023-01-11T06:56:23.607Z,9.53
2023-01-11T06:58:50.821Z,9.53
2023-01-11T07:01:18.510Z,9.52
2023-01-11T07:03:45.866Z,9.50
2023-01-11T07:06:14.648Z,9.64
2023-01-11T07:08:42.610Z,9.60
2023-01-11T07:11:10.298Z,9.58
2023-01-11T07:13:36.964Z,9.59
2023-01-11T07:16:03.882Z,9.53
2023-01-11T07:18:31.768Z,9.56
2023-01-11T07:20:58.490Z,9.51
2023-01-11T07:23:25.161Z,9.53
2023-01-11T07:25:51.905Z,9.61
2023-01-11T07:28:18.701Z,9.47
2023-01-11T07:30:57.762Z,9.60
2023-01-11T07:33:26.159Z,9.54
2023-01-11T07:35:53.556Z,9.50
2023-01-11T07:38:20.269Z,9.60
2023-01-11T07:40:47.107Z,9.57
2023-01-11T07:43:14.915Z,9.48
2023-01-11T07:45:50.770Z,9.49
2023-01-11T07:48:24.859Z,9.49
2023-01-11T07:50:52.661Z,9.43
2023-01-11T07:53:19.635Z,9.42
2023-01-11T07:55:47.103Z,9.40
2023-01-11T07:58:17.101Z,9.40
2023-01-11T08:00:45.971Z,9.35
2023-01-11T08:03:13.128Z,9.37
2023-01-11T08:05:40.624Z,9.34
2023-01-11T08:08:08.254Z,9.39
2023-01-11T08:10:35.689Z,9.38
2023-01-11T08:13:21.011Z,9.34
2023-01-11T08:15:47.735Z,9.36
2023-01-11T08:18:14.423Z,9.41
2023-01-11T08:20:41.397Z,9.40
2023-01-11T08:23:10.201Z,9.39
2023-01-11T08:25:37.434Z,9.41
2023-01-11T08:28:06.989Z,9.43
2023-01-11T08:30:34.957Z,9.42
2023-01-11T08:33:02.747Z,9.40
2023-01-11T08:35:30.554Z,9.37
2023-01-11T08:37:57.283Z,9.39
2023-01-11T08:40:25.535Z,9.40
2023-01-11T08:42:56.956Z,9.33
2023-01-11T08:45:24.583Z,9.27
2023-01-11T08:47:52.446Z,9.17
2023-01-11T08:50:21.231Z,9.06
2023-01-11T08:52:50.895Z,8.94
2023-01-11T08:55:18.076Z,8.91
2023-01-11T08:57:45.875Z,8.87
2023-01-11T09:00:13.927Z,8.86
2023-01-11T09:02:40.814Z,8.83
2023-01-11T09:05:08.125Z,8.84
2023-01-11T09:07:34.843Z,8.85
2023-01-11T09:10:01.602Z,8.84
2023-01-11T09:12:28.548Z,8.85
2023-01-11T09:14:55.216Z,8.85
2023-01-11T09:17:21.917Z,8.87
2023-01-11T09:19:48.559Z,8.84
2023-01-11T09:22:15.460Z,8.81
2023-01-11T09:24:42.106Z,8.82
2023-01-11T09:27:09.065Z,8.76
2023-01-11T09:29:37.403Z,8.78
2023-01-11T09:32:05.044Z,8.70
2023-01-11T09:34:31.970Z,8.69
2023-01-11T09:37:00.792Z,8.68
2023-01-11T09:39:28.741Z,8.63
2023-01-11T09:42:31.509Z,8.61
2023-01-11T09:45:21.576Z,8.57
2023-01-11T09:48:04.867Z,8.56
2023-01-11T09:50:41.711Z,8.53
2023-01-11T09:53:32.489Z,8.53
2023-01-11T09:56:02.404Z,8.51
2023-01-11T09:59:15.036Z,8.48
2023-01-11T10:02:10.037Z,8.43
2023-01-11T10:05:09.663Z,8.49
2023-01-11T10:07:49.715Z,8.49
2023-01-11T10:18:26.283Z,8.48
2023-01-11T10:19:39.564Z,8.52
2023-01-11T10:22:19.617Z,8.52
2023-01-11T10:24:59.124Z,8.51
2023-01-11T10:27:40.730Z,8.50
2023-01-11T10:30:46.468Z,8.60
2023-01-11T10:33:38.182Z,8.65
2023-01-11T10:36:27.153Z,8.72
2023-01-11T10:39:23.505Z,8.75
2023-01-11T10:42:05.712Z,8.78
2023-01-11T10:44:48.626Z,8.72
2023-01-11T10:47:22.285Z,8.81
2023-01-11T10:49:59.583Z,8.73
2023-01-11T10:52:51.980Z,8.73
2023-01-11T10:55:43.140Z,8.71
2023-01-11T10:58:18.755Z,8.68
2023-01-11T11:01:00.935Z,8.57
2023-01-11T11:04:32.931Z,8.49
2023-01-11T11:07:40.770Z,8.55
2023-01-11T11:10:56.573Z,8.54
2023-01-11T11:13:32.110Z,8.40
2023-01-11T11:16:14.033Z,8.38
2023-01-11T11:18:43.436Z,8.29
2023-01-11T11:21:29.509Z,8.31
2023-01-11T11:24:13.476Z,8.34
2023-01-11T11:26:46.871Z,8.54
2023-01-11T11:29:23.074Z,8.65
2023-01-11T11:31:51.273Z,8.82
2023-01-11T11:34:21.207Z,8.88
2023-01-11T11:36:52.364Z,9.02
2023-01-11T11:39:29.597Z,9.05
2023-01-11T11:42:08.367Z,8.92
2023-01-11T11:44:35.468Z,8.83
2023-01-11T11:47:16.998Z,8.71
2023-01-11T11:49:43.836Z,8.72
2023-01-11T11:52:17.468Z,8.73
2023-01-11T11:54:57.055Z,8.90
2023-01-11T11:57:31.174Z,8.96
2023-01-11T12:00:19.236Z,8.99
2023-01-11T12:02:58.609Z,9.19
2023-01-11T12:05:25.459Z,9.33
2023-01-11T12:07:55.430Z,9.39
2023-01-11T12:10:28.677Z,9.31
2023-01-11T12:13:01.849Z,9.39
2023-01-11T12:15:31.086Z,9.50
2023-01-11T12:18:32.790Z,9.51
2023-01-11T12:21:32.537Z,9.57
2023-01-11T12:24:19.547Z,9.63
2023-01-11T12:27:43.815Z,9.58
2023-01-11T12:30:33.230Z,9.53
2023-01-11T12:33:15.165Z,9.52
2023-01-11T12:36:03.181Z,9.47
2023-01-11T12:39:05.053Z,9.38
2023-01-11T12:42:38.806Z,9.35
2023-01-11T12:45:37.891Z,9.28
2023-01-11T12:48:40.653Z,9.22
2023-01-11T12:51:41.318Z,9.19
2023-01-11T12:54:29.642Z,9.22
2023-01-11T12:57:05.104Z,9.22
2023-01-11T13:00:07.813Z,9.18
2023-01-11T13:03:18.983Z,9.16
2023-01-11T13:06:06.856Z,9.13
2023-01-11T13:09:04.019Z,9.17
2023-01-11T13:11:45.943Z,9.09
2023-01-11T13:14:53.256Z,9.05
2023-01-11T13:17:46.447Z,9.09
2023-01-11T13:20:59.257Z,9.13
2023-01-11T13:23:42.760Z,9.15
2023-01-11T13:26:36.356Z,9.19
2023-01-11T13:29:54.205Z,9.12
2023-01-11T13:32:30.271Z,9.15
2023-01-11T13:35:18.481Z,9.18
2023-01-11T13:38:05.594Z,9.25
2023-01-11T13:40:39.934Z,9.18
2023-01-11T13:43:30.262Z,9.19
2023-01-11T13:46:12.321Z,9.35
2023-01-11T13:48:53.480Z,9.42
2023-01-11T13:51:45.262Z,9.46
2023-01-11T13:54:22.272Z,9.43
2023-01-11T13:56:55.920Z,9.41
2023-01-11T13:59:35.876Z,9.37
2023-01-11T14:02:14.263Z,9.48
2023-01-11T14:04:45.712Z,9.50
2023-01-11T14:07:37.499Z,9.50
2023-01-11T14:10:31.435Z,9.55
2023-01-11T14:13:45.006Z,9.46
2023-01-11T14:16:28.892Z,9.30
2023-01-11T14:19:10.588Z,9.23
2023-01-11T14:22:34.951Z,9.23
2023-01-11T14:25:13.711Z,9.31
2023-01-11T14:28:10.271Z,9.32
2023-01-11T14:31:04.900Z,9.38
2023-01-11T14:33:31.550Z,9.41
2023-01-11T14:36:34.704Z,9.36
2023-01-11T14:39:47.725Z,9.26
2023-01-11T14:43:01.890Z,9.19
2023-01-11T14:46:14.411Z,9.14
2023-01-11T14:49:16.337Z,9.17
2023-01-11T14:52:03.195Z,9.17
2023-01-11T14:54:44.173Z,9.13
2023-01-11T14:57:55.000Z,9.12
2023-01-11T15:00:21.635Z,9.16
2023-01-11T15:03:18.243Z,9.12
2023-01-11T15:06:23.833Z,9.12
2023-01-11T15:08:54.883Z,9.08
2023-01-11T15:11:40.777Z,9.05
2023-01-11T15:14:32.873Z,9.09
2023-01-11T15:17:20.972Z,8.99
2023-01-11T15:19:49.381Z,8.89
2023-01-11T15:22:28.422Z,8.85
2023-01-11T15:25:00.374Z,8.80
2023-01-11T15:27:39.642Z,8.76
2023-01-11T15:30:31.263Z,8.72
2023-01-11T15:33:16.979Z,8.70
2023-01-11T15:35:55.818Z,8.64
2023-01-11T15:38:32.840Z,8.56
2023-01-11T15:41:22.985Z,8.56
2023-01-11T15:44:23.039Z,8.53
2023-01-11T15:47:05.571Z,8.52
2023-01-11T15:50:19.089Z,8.46
2023-01-11T15:53:17.171Z,8.49
2023-01-11T15:56:37.254Z,8.48
2023-01-11T15:59:40.720Z,8.58
2023-01-11T16:02:13.389Z,8.49
2023-01-11T16:04:50.232Z,8.53
2023-01-11T16:07:50.535Z,8.62
2023-01-11T16:10:46.460Z,8.51
2023-01-11T16:13:36.933Z,8.43
2023-01-11T16:16:29.323Z,8.41
2023-01-11T16:19:08.030Z,8.48
2023-01-11T16:21:39.197Z,8.45
2023-01-11T16:24:09.363Z,8.44
2023-01-11T16:26:37.892Z,8.40
2023-01-11T16:29:19.945Z,8.39
2023-01-11T16:32:17.189Z,8.44
2023-01-11T16:34:47.044Z,8.46
2023-01-11T16:37:30.008Z,8.48
2023-01-11T16:40:16.856Z,8.49
2023-01-11T16:43:02.987Z,8.47
2023-01-11T16:45:45.562Z,8.43
2023-01-11T16:48:41.701Z,8.33
2023-01-11T16:51:14.129Z,8.27
2023-01-11T16:53:43.951Z,8.15
2023-01-11T16:56:18.818Z,8.12
2023-01-11T16:59:14.265Z,8.05
2023-01-11T17:02:06.049Z,8.06
2023-01-11T17:04:34.958Z,7.94
2023-01-11T17:07:23.905Z,8.04
2023-01-11T17:09:51.171Z,7.99
2023-01-11T17:12:25.074Z,7.93
2023-01-11T17:14:54.824Z,7.96
2023-01-11T17:17:21.890Z,7.95
2023-01-11T17:19:50.873Z,7.86
2023-01-11T17:22:21.981Z,7.92
2023-01-11T17:24:52.781Z,7.86
2023-01-11T17:27:41.476Z,7.78
2023-01-11T17:30:22.408Z,7.78
2023-01-11T17:32:52.823Z,7.76
2023-01-11T17:35:44.044Z,7.80
2023-01-11T17:38:21.538Z,7.76
2023-01-11T17:40:48.892Z,7.69
2023-01-11T17:43:46.220Z,7.61
2023-01-11T17:46:21.379Z,7.56
2023-01-11T17:48:57.764Z,7.63
2023-01-11T17:51:27.353Z,7.57
2023-01-11T17:53:54.368Z,7.57
2023-01-11T17:56:34.374Z,7.55
2023-01-11T17:59:24.233Z,7.54
2023-01-11T18:02:08.651Z,7.65
2023-01-11T18:04:35.444Z,7.61
2023-01-11T18:07:17.359Z,7.73
2023-01-11T18:09:50.269Z,7.64
2023-01-11T18:12:30.463Z,7.63
2023-01-11T18:15:00.630Z,7.60
2023-01-11T18:17:36.359Z,7.60
2023-01-11T18:20:29.314Z,7.63
2023-01-11T18:23:05.057Z,7.56
2023-01-11T18:25:35.028Z,7.57
2023-01-11T18:28:30.305Z,7.52
2023-01-11T18:31:01.604Z,7.50
2023-01-11T18:33:33.112Z,7.50
2023-01-11T18:36:03.411Z,7.51
2023-01-11T18:38:35.760Z,7.61
2023-01-11T18:41:28.689Z,7.53
2023-01-11T18:43:55.926Z,7.57
2023-01-11T18:46:22.743Z,7.52
2023-01-11T18:48:49.536Z,7.55
2023-01-11T18:51:28.351Z,7.57
2023-01-11T18:53:55.044Z,7.54
2023-01-11T18:56:21.675Z,7.48
2023-01-11T18:58:48.391Z,7.48
2023-01-11T19:01:15.198Z,7.50
2023-01-11T19:03:43.753Z,7.41
2023-01-11T19:06:13.400Z,7.45
2023-01-11T19:08:40.202Z,7.42
2023-01-11T19:11:06.857Z,7.42
2023-01-11T19:13:33.548Z,7.40
2023-01-11T19:16:01.657Z,7.44
2023-01-11T19:18:29.336Z,7.42
2023-01-11T19:21:02.691Z,7.47
2023-01-11T19:23:29.692Z,7.40
2023-01-11T19:25:58.201Z,7.47
2023-01-11T19:28:24.922Z,7.55
2023-01-11T19:30:51.602Z,7.55
2023-01-11T19:33:19.423Z,7.54
2023-01-11T19:35:49.275Z,7.58
2023-01-11T19:38:18.346Z,7.60
2023-01-11T19:40:46.901Z,7.68
2023-01-11T19:43:15.288Z,7.64
2023-01-11T19:45:42.056Z,7.72
2023-01-11T19:48:08.787Z,7.72
2023-01-11T19:50:35.460Z,7.70
2023-01-11T19:53:02.117Z,7.83
2023-01-11T19:55:28.831Z,7.72
2023-01-11T19:57:55.520Z,7.80
2023-01-11T20:00:22.299Z,7.75
2023-01-11T20:02:49.055Z,7.78
2023-01-11T20:05:15.819Z,7.80
2023-01-11T20:07:42.524Z,7.70
2023-01-11T20:10:09.952Z,7.61
2023-01-11T20:12:36.676Z,7.69
2023-01-11T20:15:03.646Z,7.63
2023-01-11T20:17:30.523Z,7.69
2023-01-11T20:19:57.425Z,7.64
2023-01-11T20:22:24.781Z,7.80
2023-01-11T20:24:51.574Z,7.78
2023-01-11T20:27:18.807Z,7.71
2023-01-11T20:29:45.768Z,7.72
2023-01-11T20:32:34.911Z,7.81
2023-01-11T20:34:59.308Z,7.82
2023-01-11T20:37:25.988Z,7.81
2023-01-11T20:39:52.726Z,7.81
2023-01-11T20:42:19.493Z,7.80
2023-01-11T20:44:46.327Z,7.87
2023-01-11T20:47:13.159Z,7.87
2023-01-11T20:49:40.317Z,7.89
2023-01-11T20:52:07.125Z,7.88
2023-01-11T20:54:33.875Z,7.94
2023-01-11T20:57:05.383Z,8.00
2023-01-11T20:59:32.365Z,8.00
2023-01-11T21:01:59.443Z,8.00
2023-01-11T21:04:26.229Z,8.02
2023-01-11T21:06:52.988Z,8.11
2023-01-11T21:09:19.780Z,8.01
2023-01-11T21:11:53.094Z,8.15
2023-01-11T21:14:23.383Z,8.10
2023-01-11T21:16:50.151Z,8.13
2023-01-11T21:19:17.302Z,8.10
2023-01-11T21:21:44.666Z,8.20
2023-01-11T21:24:14.738Z,8.19
2023-01-11T21:26:43.436Z,8.17
2023-01-11T21:29:11.790Z,8.19
2023-01-11T21:31:39.709Z,8.22
2023-01-11T21:34:06.957Z,8.16
2023-01-11T21:36:34.504Z,8.20
2023-01-11T21:39:02.595Z,8.23
2023-01-11T21:41:50.747Z,8.28
2023-01-11T21:44:19.377Z,8.24
2023-01-11T21:46:46.766Z,8.34
2023-01-11T21:49:14.377Z,8.28
2023-01-11T21:51:42.246Z,8.25
2023-01-11T21:54:12.546Z,8.26
2023-01-11T21:56:41.577Z,8.15
2023-01-11T21:59:08.590Z,8.00
2023-01-11T22:01:35.597Z,8.00
2023-01-11T22:04:11.629Z,8.11
2023-01-11T22:06:41.625Z,8.10
2023-01-11T22:09:10.982Z,8.08
2023-01-11T22:11:38.346Z,8.06
2023-01-11T22:14:06.548Z,8.05
2023-01-11T22:16:34.342Z,8.06
2023-01-11T22:19:01.826Z,7.99
2023-01-11T22:21:29.166Z,7.97
2023-01-11T22:23:58.578Z,7.94
2023-01-11T22:26:27.775Z,7.92
2023-01-11T22:29:14.700Z,7.89
2023-01-11T22:31:52.497Z,7.89
2023-01-11T22:34:19.662Z,7.94
2023-01-11T22:36:46.641Z,7.93
2023-01-11T22:39:15.660Z,7.95
2023-01-11T22:41:45.352Z,7.94
2023-01-11T22:44:12.646Z,7.95
2023-01-11T22:46:40.013Z,7.97
2023-01-11T22:49:07.903Z,7.97
2023-01-11T22:51:35.810Z,7.98
2023-01-11T22:54:03.448Z,7.99
2023-01-11T22:56:30.477Z,7.99
2023-01-11T22:58:57.937Z,7.98
2023-01-11T23:01:36.698Z,7.97
2023-01-11T23:04:04.702Z,7.97
2023-01-11T23:06:36.031Z,7.94
2023-01-11T23:09:04.278Z,7.96
2023-01-11T23:11:55.381Z,7.87
2023-01-11T23:14:22.236Z,7.83
2023-01-11T23:16:50.305Z,7.75
2023-01-11T23:19:19.873Z,7.75
2023-01-11T23:21:48.053Z,7.67
2023-01-11T23:24:16.807Z,7.57
2023-01-11T23:26:44.421Z,7.52
2023-01-11T23:29:11.957Z,7.52
2023-01-11T23:31:38.823Z,7.46
2023-01-11T23:34:08.284Z,7.38
2023-01-11T23:36:38.784Z,7.37
2023-01-11T23:39:09.932Z,7.34
2023-01-11T23:41:55.105Z,7.35
2023-01-11T23:44:22.703Z,7.32
2023-01-11T23:47:09.331Z,7.30
2023-01-11T23:49:36.758Z,7.25
2023-01-11T23:52:04.035Z,7.23
2023-01-11T23:54:33.300Z,7.20
2023-01-11T23:57:02.513Z,7.18
2023-01-11T23:59:29.483Z,7.15
